createdAt,value
2023-05-24T00:01:38.910Z,30.35
2023-05-24T00:04:12.022Z,30.35
2023-05-24T00:06:43.628Z,32.22
2023-05-24T00:09:13.713Z,24.13
2023-05-24T00:11:48.013Z,33.83
2023-05-24T00:14:22.304Z,31.58
2023-05-24T00:16:52.463Z,31.58
2023-05-24T00:19:23.216Z,27.67
2023-05-24T00:21:53.760Z,32.83
2023-05-24T00:24:22.675Z,27.42
2023-05-24T00:27:04.997Z,22.25
2023-05-24T00:29:38.043Z,33.83
2023-05-24T00:32:08.781Z,35.65
2023-05-24T00:35:01.564Z,34.72
2023-05-24T00:37:30.723Z,33.00
2023-05-24T00:40:02.517Z,32.10
2023-05-24T00:42:34.397Z,33.55
2023-05-24T00:45:03.058Z,39.97
2023-05-24T00:47:32.022Z,32.20
2023-05-24T00:50:06.489Z,34.08
2023-05-24T00:52:36.297Z,31.40
2023-05-24T00:55:06.774Z,30.13
2023-05-24T00:57:40.030Z,34.65
2023-05-24T01:00:14.530Z,25.90
2023-05-24T01:02:53.551Z,28.52
2023-05-24T01:05:25.600Z,35.58
2023-05-24T01:08:12.474Z,29.60
2023-05-24T01:10:53.424Z,43.70
2023-05-24T01:13:36.241Z,41.95
2023-05-24T01:16:13.074Z,41.15
2023-05-24T01:18:48.351Z,36.70
2023-05-24T01:21:49.702Z,37.60
2023-05-24T01:24:32.227Z,35.05
2023-05-24T01:27:12.287Z,39.22
2023-05-24T01:29:42.866Z,32.90
2023-05-24T01:32:12.300Z,29.98
2023-05-24T01:34:41.115Z,39.33
2023-05-24T01:37:10.324Z,43.90
2023-05-24T01:39:39.891Z,35.30
2023-05-24T01:42:26.201Z,39.83
2023-05-24T01:48:08.450Z,35.10
2023-05-24T01:50:45.629Z,36.58
2023-05-24T01:53:19.506Z,36.30
2023-05-24T01:55:53.602Z,31.63
2023-05-24T01:58:31.353Z,41.75
2023-05-24T02:01:03.517Z,39.33
2023-05-24T02:03:38.205Z,34.47
2023-05-24T02:06:11.053Z,44.72
2023-05-24T02:08:56.362Z,40.55
2023-05-24T02:11:24.950Z,32.08
2023-05-24T02:13:55.450Z,28.75
2023-05-24T02:16:27.692Z,35.22
2023-05-24T02:18:58.227Z,34.15
2023-05-24T02:21:28.304Z,28.13
2023-05-24T02:23:58.341Z,35.17
2023-05-24T02:26:28.562Z,36.42
2023-05-24T02:28:58.837Z,34.80
2023-05-24T02:31:28.948Z,50.15
2023-05-24T02:33:58.469Z,40.75
2023-05-24T02:36:28.891Z,34.13
2023-05-24T02:38:58.838Z,35.95
2023-05-24T02:41:28.268Z,43.42
2023-05-24T02:43:58.080Z,30.92
2023-05-24T02:46:26.855Z,31.15
2023-05-24T02:48:56.072Z,30.13
2023-05-24T02:51:26.459Z,44.30
2023-05-24T02:53:55.674Z,28.98
2023-05-24T02:56:28.063Z,33.22
2023-05-24T02:59:00.242Z,37.00
2023-05-24T03:01:30.108Z,36.33
2023-05-24T03:03:59.786Z,30.17
2023-05-24T03:06:31.723Z,32.95
2023-05-24T03:09:00.504Z,28.00
2023-05-24T03:11:29.997Z,31.67
2023-05-24T03:14:00.853Z,37.78
2023-05-24T03:16:29.571Z,33.42
2023-05-24T03:19:00.051Z,29.52
2023-05-24T03:21:29.814Z,31.88
2023-05-24T03:23:58.953Z,44.10
2023-05-24T03:26:28.662Z,34.92
2023-05-24T03:29:01.008Z,36.65
2023-05-24T03:31:30.857Z,28.55
2023-05-24T03:33:59.547Z,28.00
2023-05-24T03:36:29.899Z,33.90
2023-05-24T03:39:04.868Z,38.67
2023-05-24T03:41:33.892Z,35.60
2023-05-24T03:44:05.988Z,31.15
2023-05-24T03:46:36.919Z,29.58
2023-05-24T03:49:06.406Z,22.52
2023-05-24T03:51:35.108Z,28.40
2023-05-24T03:54:04.698Z,34.30
2023-05-24T03:56:33.553Z,34.55
2023-05-24T03:59:04.419Z,27.90
2023-05-24T04:01:36.848Z,32.22
2023-05-24T04:04:06.798Z,35.28
2023-05-24T04:06:38.261Z,36.70
2023-05-24T04:09:15.257Z,23.55
2023-05-24T04:11:43.928Z,18.70
2023-05-24T04:14:17.217Z,28.63
2023-05-24T04:16:50.774Z,25.15
2023-05-24T04:22:02.642Z,22.52
2023-05-24T04:24:31.240Z,21.00
2023-05-24T04:27:01.617Z,28.85
2023-05-24T04:29:33.407Z,26.52
2023-05-24T04:34:47.670Z,33.33
2023-05-24T04:37:17.372Z,22.23
2023-05-24T04:39:47.268Z,26.08
2023-05-24T04:42:18.518Z,20.88
2023-05-24T04:44:47.286Z,26.30
2023-05-24T04:47:19.781Z,32.17
2023-05-24T04:49:48.673Z,31.23
2023-05-24T04:55:06.748Z,25.30
2023-05-24T04:57:35.540Z,25.60
2023-05-24T05:00:09.509Z,28.38
2023-05-24T05:02:43.386Z,29.50
2023-05-24T05:05:13.270Z,33.38
2023-05-24T05:07:42.243Z,21.42
2023-05-24T05:10:15.856Z,27.13
2023-05-24T05:12:52.130Z,22.67
2023-05-24T05:15:24.495Z,33.60
2023-05-24T05:17:59.426Z,20.42
2023-05-24T05:20:29.318Z,30.88
2023-05-24T05:23:03.336Z,32.33
2023-05-24T05:25:32.386Z,18.38
2023-05-24T05:28:01.109Z,25.15
2023-05-24T05:30:36.040Z,22.95
2023-05-24T05:33:12.392Z,28.90
2023-05-24T05:35:42.390Z,27.77
2023-05-24T05:38:17.367Z,26.25
2023-05-24T05:40:48.596Z,30.67
2023-05-24T05:43:22.032Z,24.92
2023-05-24T05:45:50.524Z,21.33
2023-05-24T05:48:34.923Z,23.98
2023-05-24T05:51:04.240Z,29.42
2023-05-24T05:53:36.261Z,25.35
2023-05-24T05:56:07.239Z,27.90
2023-05-24T05:58:39.094Z,19.67
2023-05-24T06:01:08.928Z,21.63
2023-05-24T06:03:42.777Z,22.52
2023-05-24T06:09:11.803Z,26.50
2023-05-24T06:11:45.216Z,24.05
2023-05-24T06:17:11.530Z,23.15
2023-05-24T06:19:41.964Z,21.13
2023-05-24T06:22:11.484Z,26.10
2023-05-24T06:24:49.559Z,31.27
2023-05-24T06:30:31.470Z,22.85
2023-05-24T06:33:03.578Z,22.23
2023-05-24T06:35:41.244Z,24.02
2023-05-24T06:41:03.931Z,21.30
2023-05-24T06:43:41.336Z,22.83
2023-05-24T06:49:09.778Z,23.52
2023-05-24T06:55:27.059Z,21.55
2023-05-24T07:01:06.151Z,29.98
2023-05-24T07:06:33.935Z,22.75
2023-05-24T07:09:25.066Z,21.08
2023-05-24T07:11:54.374Z,17.83
2023-05-24T07:14:26.247Z,22.30
2023-05-24T07:17:09.022Z,23.10
2023-05-24T07:22:27.017Z,25.80
2023-05-24T07:26:01.566Z,25.08
2023-05-24T07:32:30.757Z,19.67
2023-05-24T07:38:04.722Z,20.50
2023-05-24T07:49:38.359Z,21.65
2023-05-24T07:58:18.473Z,24.60
2023-05-24T08:00:50.922Z,24.23
2023-05-24T08:03:21.380Z,22.33
2023-05-24T08:05:53.500Z,22.23
2023-05-24T08:14:03.718Z,19.42
2023-05-24T08:16:38.158Z,21.90
2023-05-24T08:19:08.554Z,21.02
2023-05-24T08:21:42.251Z,17.83
2023-05-24T08:24:11.435Z,19.80
2023-05-24T08:26:40.541Z,19.75
2023-05-24T08:29:09.391Z,19.13
2023-05-24T08:31:38.781Z,18.27
2023-05-24T08:34:08.714Z,21.08
2023-05-24T08:36:44.260Z,20.48
2023-05-24T08:39:13.909Z,18.60
2023-05-24T08:41:43.628Z,23.98
2023-05-24T08:44:17.677Z,19.38
2023-05-24T08:47:01.048Z,23.40
2023-05-24T08:49:52.033Z,22.52
2023-05-24T08:52:24.757Z,15.45
2023-05-24T08:57:41.755Z,20.52
2023-05-24T09:09:06.532Z,18.48
2023-05-24T09:11:50.964Z,21.83
2023-05-24T09:14:20.799Z,22.02
2023-05-24T09:16:51.909Z,17.10
2023-05-24T09:19:22.830Z,20.88
2023-05-24T09:22:10.969Z,17.92
2023-05-24T09:24:55.384Z,21.98
2023-05-24T09:27:25.361Z,16.17
2023-05-24T09:29:57.817Z,17.35
2023-05-24T09:32:26.890Z,22.50
2023-05-24T09:35:01.140Z,25.33
2023-05-24T09:41:13.908Z,22.42
2023-05-24T09:43:55.107Z,18.92
2023-05-24T09:46:25.694Z,17.98
2023-05-24T09:57:36.062Z,20.63
2023-05-24T10:00:18.685Z,19.33
2023-05-24T10:02:53.142Z,16.50
2023-05-24T10:07:54.358Z,17.33
2023-05-24T10:13:09.183Z,17.00
2023-05-24T10:15:43.173Z,21.15
2023-05-24T10:18:14.331Z,21.73
2023-05-24T10:20:44.046Z,16.80
2023-05-24T10:23:21.585Z,13.93
2023-05-24T10:25:58.495Z,17.40
2023-05-24T10:28:30.978Z,15.52
2023-05-24T10:31:14.343Z,12.73
2023-05-24T10:33:49.914Z,17.80
2023-05-24T10:36:26.370Z,13.57
2023-05-24T10:38:56.715Z,13.98
2023-05-24T10:41:29.120Z,15.70
2023-05-24T10:44:08.625Z,18.35
2023-05-24T10:47:27.744Z,14.20
2023-05-24T10:50:00.044Z,20.05
2023-05-24T10:52:46.480Z,18.15
2023-05-24T10:55:16.735Z,15.20
2023-05-24T10:57:48.116Z,14.27
2023-05-24T11:08:55.546Z,14.10
2023-05-24T11:11:35.822Z,15.13
2023-05-24T11:17:14.560Z,12.18
2023-05-24T11:20:00.604Z,15.93
2023-05-24T11:22:34.353Z,16.77
2023-05-24T11:25:14.738Z,14.52
2023-05-24T11:28:00.841Z,11.35
2023-05-24T11:35:56.921Z,10.18
2023-05-24T11:38:31.105Z,11.10
2023-05-24T11:41:18.412Z,15.60
2023-05-24T11:43:48.880Z,15.93
2023-05-24T11:49:07.171Z,10.52
2023-05-24T11:59:59.132Z,7.75
2023-05-24T12:02:40.188Z,9.65
2023-05-24T12:05:26.777Z,11.73
2023-05-24T12:08:30.258Z,10.57
2023-05-24T12:11:02.158Z,6.47
2023-05-24T12:13:35.929Z,9.63
2023-05-24T12:16:12.806Z,14.35
2023-05-24T12:21:33.720Z,12.65
2023-05-24T12:24:21.971Z,11.93
2023-05-24T12:26:51.765Z,10.70
2023-05-24T12:29:24.146Z,9.35
2023-05-24T12:31:54.124Z,12.25
2023-05-24T12:34:42.558Z,7.57
2023-05-24T12:37:37.847Z,9.40
2023-05-24T12:40:28.597Z,7.20
2023-05-24T12:43:00.449Z,13.68
2023-05-24T12:48:20.982Z,12.65
2023-05-24T12:50:51.587Z,12.15
2023-05-24T12:53:25.109Z,11.07
2023-05-24T12:56:12.769Z,10.20
2023-05-24T12:58:43.643Z,10.23
2023-05-24T13:09:44.302Z,15.60
2023-05-24T13:12:30.868Z,15.32
2023-05-24T13:17:48.905Z,12.32
2023-05-24T13:23:23.097Z,15.02
2023-05-24T13:25:52.872Z,12.95
2023-05-24T13:28:25.674Z,13.88
2023-05-24T13:30:55.140Z,8.95
2023-05-24T13:33:26.697Z,10.05
2023-05-24T13:35:58.131Z,8.07
2023-05-24T13:38:41.358Z,5.65
2023-05-24T13:41:17.756Z,9.95
2023-05-24T14:10:54.281Z,9.68
2023-05-24T14:14:20.773Z,7.47
2023-05-24T14:16:22.331Z,7.63
2023-05-24T14:18:51.826Z,8.27
2023-05-24T14:21:23.809Z,12.05
2023-05-24T14:23:53.340Z,6.93
2023-05-24T14:26:24.228Z,8.52
2023-05-24T14:28:56.243Z,10.70
2023-05-24T14:31:26.188Z,5.40
2023-05-24T14:33:55.375Z,8.38
2023-05-24T14:36:39.781Z,10.48
2023-05-24T14:39:09.640Z,9.20
2023-05-24T14:41:40.861Z,8.88
2023-05-24T14:44:13.097Z,9.32
2023-05-24T14:46:47.572Z,9.52
2023-05-24T14:49:32.554Z,12.88
2023-05-24T14:52:06.730Z,8.73
2023-05-24T14:54:40.349Z,7.45
2023-05-24T14:57:10.833Z,9.70
2023-05-24T14:59:40.244Z,7.43
2023-05-24T15:02:23.066Z,9.68
2023-05-24T15:04:52.032Z,8.82
2023-05-24T15:07:23.830Z,6.57
2023-05-24T15:13:03.365Z,7.00
2023-05-24T15:25:03.353Z,8.00
2023-05-24T15:27:32.643Z,8.38
2023-05-24T15:33:04.348Z,6.55
2023-05-24T15:35:58.360Z,9.55
2023-05-24T15:49:18.210Z,7.43
2023-05-24T15:52:03.442Z,8.52
2023-05-24T15:54:34.053Z,9.90
2023-05-24T15:57:05.486Z,6.22
2023-05-24T15:59:39.679Z,9.52
2023-05-24T16:02:14.183Z,6.95
2023-05-24T16:04:59.507Z,9.80
2023-05-24T16:10:28.115Z,6.38
2023-05-24T16:13:19.549Z,5.97
2023-05-24T16:15:55.902Z,8.18
2023-05-24T16:18:27.863Z,8.90
2023-05-24T16:20:59.916Z,9.43
2023-05-24T16:23:32.818Z,6.72
2023-05-24T16:26:03.267Z,6.95
2023-05-24T16:28:45.154Z,8.25
2023-05-24T16:31:23.802Z,9.80
2023-05-24T16:33:52.678Z,8.13
2023-05-24T16:36:24.925Z,8.00
2023-05-24T16:41:51.145Z,9.63
2023-05-24T16:56:06.718Z,9.15
2023-05-24T17:01:33.532Z,9.35
2023-05-24T17:04:04.709Z,9.35
2023-05-24T17:06:34.717Z,12.77
2023-05-24T17:09:07.999Z,11.18
2023-05-24T17:11:43.785Z,9.90
2023-05-24T17:14:16.412Z,11.02
2023-05-24T17:16:52.490Z,12.48
2023-05-24T17:19:26.562Z,12.52
2023-05-24T17:21:56.512Z,14.53
2023-05-24T17:24:30.963Z,14.23
2023-05-24T17:27:05.461Z,13.17
2023-05-24T17:29:36.389Z,19.57
2023-05-24T17:32:05.478Z,12.75
2023-05-24T17:34:35.594Z,12.15
2023-05-24T17:37:05.756Z,10.82
2023-05-24T17:39:39.971Z,13.32
2023-05-24T17:42:09.846Z,15.75
2023-05-24T17:44:40.477Z,14.70
2023-05-24T17:47:10.097Z,8.70
2023-05-24T17:52:30.586Z,12.05
2023-05-24T17:55:09.420Z,11.70
2023-05-24T17:57:38.432Z,18.27
2023-05-24T18:00:10.070Z,13.55
2023-05-24T18:02:40.231Z,11.52
2023-05-24T18:08:09.004Z,11.23
2023-05-24T18:10:40.134Z,10.93
2023-05-24T18:13:11.599Z,12.35
2023-05-24T18:15:42.272Z,16.90
2023-05-24T18:18:12.771Z,13.98
2023-05-24T18:20:42.015Z,12.88
2023-05-24T18:23:15.131Z,18.38
2023-05-24T18:25:47.488Z,14.95
2023-05-24T18:28:17.389Z,11.73
2023-05-24T18:30:46.423Z,11.80
2023-05-24T18:33:16.572Z,13.27
2023-05-24T18:35:46.763Z,16.40
2023-05-24T18:38:19.764Z,16.58
2023-05-24T18:40:51.397Z,15.98
2023-05-24T18:43:20.875Z,11.23
2023-05-24T18:45:49.998Z,14.40
2023-05-24T18:48:19.817Z,14.40
2023-05-24T18:51:04.190Z,25.77
2023-05-24T18:53:44.053Z,21.40
2023-05-24T18:56:16.690Z,16.08
2023-05-24T18:58:50.092Z,19.73
2023-05-24T19:01:19.888Z,13.35
2023-05-24T19:03:50.510Z,15.90
2023-05-24T19:06:19.865Z,14.05
2023-05-24T19:08:55.929Z,18.40
2023-05-24T19:12:11.856Z,14.38
2023-05-24T19:14:57.318Z,13.50
2023-05-24T19:26:19.848Z,13.88
2023-05-24T19:28:54.592Z,17.73
2023-05-24T19:31:27.577Z,14.75
2023-05-24T19:34:02.392Z,16.77
2023-05-24T19:36:33.324Z,16.30
2023-05-24T19:39:04.001Z,19.77
2023-05-24T19:41:41.624Z,21.60
2023-05-24T19:44:18.825Z,14.52
2023-05-24T19:46:56.812Z,16.65
2023-05-24T19:49:26.331Z,15.38
2023-05-24T19:51:57.434Z,17.80
2023-05-24T19:54:26.788Z,16.50
2023-05-24T19:57:05.497Z,14.68
2023-05-24T19:59:35.436Z,20.48
2023-05-24T20:02:21.301Z,13.45
2023-05-24T20:07:33.313Z,15.30
2023-05-24T20:10:02.554Z,10.68
2023-05-24T20:12:34.633Z,13.80
2023-05-24T20:15:05.616Z,11.00
2023-05-24T20:18:00.298Z,12.77
2023-05-24T20:20:29.747Z,16.40
2023-05-24T20:23:13.887Z,12.75
2023-05-24T20:28:34.576Z,14.15
2023-05-24T20:31:12.912Z,19.80
2023-05-24T20:33:46.838Z,19.05
2023-05-24T20:36:20.491Z,18.30
2023-05-24T20:38:51.538Z,11.82
2023-05-24T20:41:23.126Z,15.25
2023-05-24T20:43:52.807Z,14.20
2023-05-24T20:46:22.873Z,13.35
2023-05-24T20:49:08.195Z,15.60
2023-05-24T20:51:40.385Z,14.45
2023-05-24T20:54:18.754Z,18.05
2023-05-24T20:56:54.130Z,18.35
2023-05-24T20:59:32.314Z,15.48
2023-05-24T21:02:06.651Z,14.75
2023-05-24T21:13:40.018Z,15.07
2023-05-24T21:16:47.469Z,11.45
2023-05-24T21:23:31.208Z,16.15
2023-05-24T21:26:24.301Z,14.98
2023-05-24T21:32:14.037Z,13.07
2023-05-24T21:35:07.239Z,12.07
2023-05-24T21:37:51.167Z,13.10
2023-05-24T21:40:37.494Z,11.88
2023-05-24T21:46:38.001Z,11.88
2023-05-24T21:49:13.810Z,11.38
2023-05-24T21:52:38.496Z,13.80
2023-05-24T21:55:43.379Z,16.55
2023-05-24T22:01:10.881Z,14.18
2023-05-24T22:06:55.530Z,17.40
2023-05-24T22:09:52.203Z,9.23
2023-05-24T22:12:28.517Z,15.13
2023-05-24T22:15:15.184Z,19.73
2023-05-24T22:17:51.036Z,16.92
2023-05-24T22:20:29.013Z,13.50
2023-05-24T22:23:01.148Z,19.05
2023-05-24T22:25:35.713Z,16.70
2023-05-24T22:28:05.616Z,13.43
2023-05-24T22:30:37.226Z,14.95
2023-05-24T22:33:08.221Z,16.13
2023-05-24T22:35:39.473Z,15.73
2023-05-24T22:38:09.075Z,16.40
2023-05-24T22:40:42.370Z,23.02
2023-05-24T22:43:18.758Z,19.02
2023-05-24T22:45:49.923Z,15.20
2023-05-24T22:48:22.495Z,14.50
2023-05-24T22:51:00.901Z,13.25
2023-05-24T22:53:31.493Z,18.83
2023-05-24T22:56:04.927Z,13.43
2023-05-24T22:58:35.330Z,16.98
2023-05-24T23:01:05.491Z,16.65
2023-05-24T23:03:40.296Z,15.23
2023-05-24T23:06:12.341Z,16.27
2023-05-24T23:08:44.390Z,19.58
2023-05-24T23:11:32.890Z,13.77
2023-05-24T23:14:04.378Z,15.57
2023-05-24T23:16:35.051Z,17.40
2023-05-24T23:22:07.721Z,13.15
2023-05-24T23:24:38.244Z,18.85
2023-05-24T23:27:12.610Z,12.70
2023-05-24T23:29:42.678Z,16.75
2023-05-24T23:32:14.454Z,19.88
2023-05-24T23:34:44.072Z,15.52
2023-05-24T23:37:14.671Z,14.20
2023-05-24T23:39:44.689Z,16.55
2023-05-24T23:42:21.797Z,15.55
2023-05-24T23:45:00.685Z,17.30
2023-05-24T23:47:30.665Z,20.73
2023-05-24T23:49:59.808Z,16.95
2023-05-24T23:52:29.671Z,15.65
2023-05-24T23:54:59.540Z,16.58
2023-05-24T23:57:35.099Z,15.25
